sensor_id;sensor_type;location;lat;lon;timestamp;P1;durP1;ratioP1;P2;durP2;ratioP2
43363;SDS011;40636;52.424;-1.948;2023-11-22T00:01:50;10.93;;;8.88;;
43363;SDS011;40636;52.424;-1.948;2023-11-22T00:04:17;2.75;;;2.38;;
43363;SDS011;40636;52.424;-1.948;2023-11-22T00:06:46;13.07;;;9.07;;
43363;SDS011;40636;52.424;-1.948;2023-11-22T00:09:13;12.60;;;9.73;;
43363;SDS011;40636;52.424;-1.948;2023-11-22T00:11:41;3.20;;;2.90;;
43363;SDS011;40636;52.424;-1.948;2023-11-22T00:14:07;14.65;;;10.45;;
43363;SDS011;40636;52.424;-1.948;2023-11-22T00:16:34;12.82;;;11.30;;
43363;SDS011;40636;52.424;-1.948;2023-11-22T00:19:03;14.38;;;11.38;;
43363;SDS011;40636;52.424;-1.948;2023-11-22T00:21:31;21.98;;;12.93;;
43363;SDS011;40636;52.424;-1.948;2023-11-22T00:23:58;2.90;;;2.70;;
43363;SDS011;40636;52.424;-1.948;2023-11-22T00:26:25;5.10;;;2.53;;
43363;SDS011;40636;52.424;-1.948;2023-11-22T00:28:51;17.10;;;13.00;;
43363;SDS011;40636;52.424;-1.948;2023-11-22T00:31:19;15.73;;;12.68;;
43363;SDS011;40636;52.424;-1.948;2023-11-22T00:33:46;17.40;;;12.52;;
43363;SDS011;40636;52.424;-1.948;2023-11-22T00:36:12;2.10;;;1.95;;
43363;SDS011;40636;52.424;-1.948;2023-11-22T00:38:39;2.40;;;2.08;;
43363;SDS011;40636;52.424;-1.948;2023-11-22T00:41:06;17.73;;;13.20;;
43363;SDS011;40636;52.424;-1.948;2023-11-22T00:43:34;16.55;;;12.90;;
43363;SDS011;40636;52.424;-1.948;2023-11-22T00:46:00;16.55;;;13.27;;
43363;SDS011;40636;52.424;-1.948;2023-11-22T00:48:28;16.80;;;13.18;;
43363;SDS011;40636;52.424;-1.948;2023-11-22T00:50:54;18.75;;;12.30;;
43363;SDS011;40636;52.424;-1.948;2023-11-22T00:53:21;15.45;;;12.52;;
43363;SDS011;40636;52.424;-1.948;2023-11-22T00:55:48;3.80;;;2.65;;
43363;SDS011;40636;52.424;-1.948;2023-11-22T00:58:14;10.77;;;2.42;;
43363;SDS011;40636;52.424;-1.948;2023-11-22T01:00:41;13.57;;;11.30;;
43363;SDS011;40636;52.424;-1.948;2023-11-22T01:03:08;14.35;;;11.45;;
43363;SDS011;40636;52.424;-1.948;2023-11-22T01:05:38;12.18;;;10.77;;
43363;SDS011;40636;52.424;-1.948;2023-11-22T01:08:05;4.07;;;2.88;;
43363;SDS011;40636;52.424;-1.948;2023-11-22T01:10:32;11.15;;;9.73;;
43363;SDS011;40636;52.424;-1.948;2023-11-22T01:12:58;11.10;;;9.27;;
43363;SDS011;40636;52.424;-1.948;2023-11-22T01:15:25;13.15;;;9.95;;
43363;SDS011;40636;52.424;-1.948;2023-11-22T01:17:53;1.50;;;1.38;;
43363;SDS011;40636;52.424;-1.948;2023-11-22T01:20:19;11.73;;;8.73;;
43363;SDS011;40636;52.424;-1.948;2023-11-22T01:22:49;10.25;;;8.32;;
43363;SDS011;40636;52.424;-1.948;2023-11-22T01:25:16;13.57;;;8.75;;
43363;SDS011;40636;52.424;-1.948;2023-11-22T01:27:43;8.60;;;7.03;;
43363;SDS011;40636;52.424;-1.948;2023-11-22T01:30:10;8.65;;;7.55;;
43363;SDS011;40636;52.424;-1.948;2023-11-22T01:32:38;10.90;;;7.70;;
43363;SDS011;40636;52.424;-1.948;2023-11-22T01:35:05;9.18;;;7.13;;
43363;SDS011;40636;52.424;-1.948;2023-11-22T01:37:32;9.38;;;6.95;;
43363;SDS011;40636;52.424;-1.948;2023-11-22T01:39:59;7.72;;;7.03;;
43363;SDS011;40636;52.424;-1.948;2023-11-22T01:42:26;9.48;;;7.10;;
43363;SDS011;40636;52.424;-1.948;2023-11-22T01:44:52;7.47;;;6.10;;
43363;SDS011;40636;52.424;-1.948;2023-11-22T01:47:19;7.90;;;5.80;;
43363;SDS011;40636;52.424;-1.948;2023-11-22T01:49:46;1.42;;;1.30;;
43363;SDS011;40636;52.424;-1.948;2023-11-22T01:52:13;1.90;;;1.75;;
43363;SDS011;40636;52.424;-1.948;2023-11-22T01:54:40;7.43;;;5.35;;
43363;SDS011;40636;52.424;-1.948;2023-11-22T01:57:09;1.20;;;1.10;;
43363;SDS011;40636;52.424;-1.948;2023-11-22T01:59:36;1.55;;;1.15;;
43363;SDS011;40636;52.424;-1.948;2023-11-22T02:02:04;6.45;;;5.07;;
43363;SDS011;40636;52.424;-1.948;2023-11-22T02:04:31;6.18;;;5.05;;
43363;SDS011;40636;52.424;-1.948;2023-11-22T02:06:58;7.70;;;5.13;;
43363;SDS011;40636;52.424;-1.948;2023-11-22T02:09:24;5.90;;;5.30;;
43363;SDS011;40636;52.424;-1.948;2023-11-22T02:11:51;6.45;;;4.95;;
43363;SDS011;40636;52.424;-1.948;2023-11-22T02:14:18;8.65;;;5.38;;
43363;SDS011;40636;52.424;-1.948;2023-11-22T02:16:46;8.77;;;5.22;;
43363;SDS011;40636;52.424;-1.948;2023-11-22T02:19:16;5.75;;;4.88;;
43363;SDS011;40636;52.424;-1.948;2023-11-22T02:21:45;7.32;;;5.15;;
43363;SDS011;40636;52.424;-1.948;2023-11-22T02:24:12;8.57;;;6.00;;
43363;SDS011;40636;52.424;-1.948;2023-11-22T02:26:42;1.20;;;1.10;;
43363;SDS011;40636;52.424;-1.948;2023-11-22T02:29:10;1.30;;;0.68;;
43363;SDS011;40636;52.424;-1.948;2023-11-22T02:31:39;6.35;;;4.78;;
43363;SDS011;40636;52.424;-1.948;2023-11-22T02:34:11;6.43;;;4.97;;
43363;SDS011;40636;52.424;-1.948;2023-11-22T02:36:38;7.25;;;5.05;;
43363;SDS011;40636;52.424;-1.948;2023-11-22T02:39:05;7.50;;;5.03;;
43363;SDS011;40636;52.424;-1.948;2023-11-22T02:41:32;8.27;;;4.75;;
43363;SDS011;40636;52.424;-1.948;2023-11-22T02:44:00;6.40;;;4.95;;
43363;SDS011;40636;52.424;-1.948;2023-11-22T02:46:27;5.05;;;4.32;;
43363;SDS011;40636;52.424;-1.948;2023-11-22T02:48:54;6.47;;;5.00;;
43363;SDS011;40636;52.424;-1.948;2023-11-22T02:51:20;1.20;;;1.15;;
43363;SDS011;40636;52.424;-1.948;2023-11-22T02:53:48;5.82;;;4.47;;
43363;SDS011;40636;52.424;-1.948;2023-11-22T02:56:16;6.43;;;4.95;;
43363;SDS011;40636;52.424;-1.948;2023-11-22T02:58:43;5.63;;;4.30;;
43363;SDS011;40636;52.424;-1.948;2023-11-22T03:01:10;5.75;;;4.85;;
43363;SDS011;40636;52.424;-1.948;2023-11-22T03:03:37;5.70;;;4.53;;
43363;SDS011;40636;52.424;-1.948;2023-11-22T03:06:04;8.07;;;4.45;;
43363;SDS011;40636;52.424;-1.948;2023-11-22T03:08:31;0.88;;;0.77;;
43363;SDS011;40636;52.424;-1.948;2023-11-22T03:10:59;1.95;;;1.45;;
43363;SDS011;40636;52.424;-1.948;2023-11-22T03:13:25;7.38;;;5.40;;
43363;SDS011;40636;52.424;-1.948;2023-11-22T03:15:52;0.90;;;0.90;;
43363;SDS011;40636;52.424;-1.948;2023-11-22T03:18:19;9.43;;;5.60;;
43363;SDS011;40636;52.424;-1.948;2023-11-22T03:20:48;8.13;;;5.63;;
43363;SDS011;40636;52.424;-1.948;2023-11-22T03:23:14;9.15;;;5.20;;
43363;SDS011;40636;52.424;-1.948;2023-11-22T03:25:43;9.93;;;5.18;;
43363;SDS011;40636;52.424;-1.948;2023-11-22T03:28:10;5.65;;;4.78;;
43363;SDS011;40636;52.424;-1.948;2023-11-22T03:30:37;6.65;;;5.00;;
43363;SDS011;40636;52.424;-1.948;2023-11-22T03:33:03;5.65;;;4.90;;
43363;SDS011;40636;52.424;-1.948;2023-11-22T03:35:30;5.22;;;4.72;;
43363;SDS011;40636;52.424;-1.948;2023-11-22T03:37:57;6.47;;;4.70;;
43363;SDS011;40636;52.424;-1.948;2023-11-22T03:40:24;6.97;;;4.95;;
43363;SDS011;40636;52.424;-1.948;2023-11-22T03:42:51;7.32;;;4.30;;
43363;SDS011;40636;52.424;-1.948;2023-11-22T03:45:17;7.10;;;4.90;;
43363;SDS011;40636;52.424;-1.948;2023-11-22T03:47:44;6.00;;;4.53;;
43363;SDS011;40636;52.424;-1.948;2023-11-22T03:50:11;5.93;;;4.00;;
43363;SDS011;40636;52.424;-1.948;2023-11-22T03:52:38;5.78;;;3.95;;
43363;SDS011;40636;52.424;-1.948;2023-11-22T03:55:04;6.93;;;3.83;;
43363;SDS011;40636;52.424;-1.948;2023-11-22T03:57:32;4.97;;;4.18;;
43363;SDS011;40636;52.424;-1.948;2023-11-22T03:59:58;5.88;;;4.05;;
43363;SDS011;40636;52.424;-1.948;2023-11-22T04:02:25;8.35;;;4.97;;
43363;SDS011;40636;52.424;-1.948;2023-11-22T04:04:54;7.53;;;5.13;;
43363;SDS011;40636;52.424;-1.948;2023-11-22T04:07:21;7.00;;;4.70;;
43363;SDS011;40636;52.424;-1.948;2023-11-22T04:09:48;7.78;;;5.45;;
43363;SDS011;40636;52.424;-1.948;2023-11-22T04:12:14;7.90;;;5.55;;
43363;SDS011;40636;52.424;-1.948;2023-11-22T04:14:41;8.68;;;5.72;;
43363;SDS011;40636;52.424;-1.948;2023-11-22T04:17:08;7.68;;;5.03;;
43363;SDS011;40636;52.424;-1.948;2023-11-22T04:19:35;6.55;;;5.05;;
43363;SDS011;40636;52.424;-1.948;2023-11-22T04:22:02;5.43;;;4.68;;
43363;SDS011;40636;52.424;-1.948;2023-11-22T04:24:29;8.05;;;5.32;;
43363;SDS011;40636;52.424;-1.948;2023-11-22T04:26:56;0.90;;;0.90;;
43363;SDS011;40636;52.424;-1.948;2023-11-22T04:29:23;6.40;;;4.15;;
43363;SDS011;40636;52.424;-1.948;2023-11-22T04:31:49;8.40;;;4.20;;
43363;SDS011;40636;52.424;-1.948;2023-11-22T04:34:16;8.77;;;5.05;;
43363;SDS011;40636;52.424;-1.948;2023-11-22T04:36:42;3.45;;;1.67;;
43363;SDS011;40636;52.424;-1.948;2023-11-22T04:39:12;7.60;;;4.35;;
43363;SDS011;40636;52.424;-1.948;2023-11-22T04:41:39;6.18;;;4.40;;
43363;SDS011;40636;52.424;-1.948;2023-11-22T04:44:06;5.63;;;3.85;;
43363;SDS011;40636;52.424;-1.948;2023-11-22T04:46:33;9.15;;;4.10;;
43363;SDS011;40636;52.424;-1.948;2023-11-22T04:49:00;4.95;;;4.15;;
43363;SDS011;40636;52.424;-1.948;2023-11-22T04:51:27;5.47;;;3.83;;
43363;SDS011;40636;52.424;-1.948;2023-11-22T04:53:55;4.05;;;3.05;;
43363;SDS011;40636;52.424;-1.948;2023-11-22T04:56:22;5.93;;;3.58;;
43363;SDS011;40636;52.424;-1.948;2023-11-22T04:58:49;6.30;;;3.72;;
43363;SDS011;40636;52.424;-1.948;2023-11-22T05:01:16;9.52;;;4.40;;
43363;SDS011;40636;52.424;-1.948;2023-11-22T05:03:46;3.53;;;3.10;;
43363;SDS011;40636;52.424;-1.948;2023-11-22T05:06:13;4.15;;;3.25;;
43363;SDS011;40636;52.424;-1.948;2023-11-22T05:08:40;8.50;;;3.35;;
43363;SDS011;40636;52.424;-1.948;2023-11-22T05:11:08;5.78;;;2.83;;
43363;SDS011;40636;52.424;-1.948;2023-11-22T05:13:36;4.43;;;2.88;;
43363;SDS011;40636;52.424;-1.948;2023-11-22T05:16:03;4.43;;;2.95;;
43363;SDS011;40636;52.424;-1.948;2023-11-22T05:18:30;4.68;;;2.90;;
43363;SDS011;40636;52.424;-1.948;2023-11-22T05:20:56;4.22;;;2.80;;
43363;SDS011;40636;52.424;-1.948;2023-11-22T05:23:23;4.22;;;2.92;;
43363;SDS011;40636;52.424;-1.948;2023-11-22T05:25:50;3.25;;;2.95;;
43363;SDS011;40636;52.424;-1.948;2023-11-22T05:28:16;3.30;;;3.00;;
43363;SDS011;40636;52.424;-1.948;2023-11-22T05:30:43;3.75;;;2.50;;
43363;SDS011;40636;52.424;-1.948;2023-11-22T05:33:10;5.82;;;3.40;;
43363;SDS011;40636;52.424;-1.948;2023-11-22T05:35:36;4.25;;;2.95;;
43363;SDS011;40636;52.424;-1.948;2023-11-22T05:38:03;3.17;;;2.58;;
43363;SDS011;40636;52.424;-1.948;2023-11-22T05:40:30;5.88;;;2.63;;
43363;SDS011;40636;52.424;-1.948;2023-11-22T05:42:57;5.65;;;2.90;;
43363;SDS011;40636;52.424;-1.948;2023-11-22T05:45:23;2.97;;;2.67;;
43363;SDS011;40636;52.424;-1.948;2023-11-22T05:47:51;7.22;;;3.58;;
43363;SDS011;40636;52.424;-1.948;2023-11-22T05:50:18;3.70;;;2.70;;
43363;SDS011;40636;52.424;-1.948;2023-11-22T05:52:45;4.88;;;3.13;;
43363;SDS011;40636;52.424;-1.948;2023-11-22T05:55:11;7.82;;;2.90;;
43363;SDS011;40636;52.424;-1.948;2023-11-22T05:57:40;4.25;;;2.40;;
43363;SDS011;40636;52.424;-1.948;2023-11-22T06:00:07;4.25;;;2.53;;
43363;SDS011;40636;52.424;-1.948;2023-11-22T06:02:35;4.00;;;2.95;;
43363;SDS011;40636;52.424;-1.948;2023-11-22T06:05:03;4.05;;;2.80;;
43363;SDS011;40636;52.424;-1.948;2023-11-22T06:07:32;6.05;;;2.50;;
43363;SDS011;40636;52.424;-1.948;2023-11-22T06:09:59;5.15;;;3.00;;
43363;SDS011;40636;52.424;-1.948;2023-11-22T06:12:28;0.93;;;0.85;;
43363;SDS011;40636;52.424;-1.948;2023-11-22T06:14:54;5.68;;;3.20;;
43363;SDS011;40636;52.424;-1.948;2023-11-22T06:17:21;7.47;;;3.58;;
43363;SDS011;40636;52.424;-1.948;2023-11-22T06:19:48;4.13;;;2.97;;
43363;SDS011;40636;52.424;-1.948;2023-11-22T06:22:15;8.50;;;3.42;;
43363;SDS011;40636;52.424;-1.948;2023-11-22T06:24:43;5.38;;;3.42;;
43363;SDS011;40636;52.424;-1.948;2023-11-22T06:27:09;5.25;;;3.72;;
43363;SDS011;40636;52.424;-1.948;2023-11-22T06:29:37;4.57;;;3.45;;
43363;SDS011;40636;52.424;-1.948;2023-11-22T06:32:04;3.85;;;2.63;;
43363;SDS011;40636;52.424;-1.948;2023-11-22T06:34:32;3.20;;;2.50;;
43363;SDS011;40636;52.424;-1.948;2023-11-22T06:37:02;3.92;;;2.30;;
43363;SDS011;40636;52.424;-1.948;2023-11-22T06:39:29;2.83;;;2.47;;
43363;SDS011;40636;52.424;-1.948;2023-11-22T06:41:56;5.60;;;2.88;;
43363;SDS011;40636;52.424;-1.948;2023-11-22T06:44:22;5.22;;;3.20;;
43363;SDS011;40636;52.424;-1.948;2023-11-22T06:46:49;6.90;;;3.05;;
43363;SDS011;40636;52.424;-1.948;2023-11-22T06:49:16;3.70;;;3.00;;
43363;SDS011;40636;52.424;-1.948;2023-11-22T06:51:42;4.78;;;3.13;;
43363;SDS011;40636;52.424;-1.948;2023-11-22T06:54:09;3.10;;;1.00;;
43363;SDS011;40636;52.424;-1.948;2023-11-22T06:56:37;4.88;;;2.80;;
43363;SDS011;40636;52.424;-1.948;2023-11-22T06:59:03;4.85;;;2.45;;
43363;SDS011;40636;52.424;-1.948;2023-11-22T07:01:30;3.45;;;2.35;;
43363;SDS011;40636;52.424;-1.948;2023-11-22T07:03:57;6.95;;;2.90;;
43363;SDS011;40636;52.424;-1.948;2023-11-22T07:06:24;3.03;;;2.10;;
43363;SDS011;40636;52.424;-1.948;2023-11-22T07:08:50;2.30;;;0.73;;
43363;SDS011;40636;52.424;-1.948;2023-11-22T07:11:23;3.75;;;2.80;;
43363;SDS011;40636;52.424;-1.948;2023-11-22T07:13:51;7.93;;;2.65;;
43363;SDS011;40636;52.424;-1.948;2023-11-22T07:16:18;4.05;;;2.47;;
43363;SDS011;40636;52.424;-1.948;2023-11-22T07:18:47;6.18;;;2.78;;
43363;SDS011;40636;52.424;-1.948;2023-11-22T07:21:14;6.30;;;3.03;;
43363;SDS011;40636;52.424;-1.948;2023-11-22T07:23:40;4.93;;;3.72;;
43363;SDS011;40636;52.424;-1.948;2023-11-22T07:26:07;5.70;;;3.65;;
43363;SDS011;40636;52.424;-1.948;2023-11-22T07:28:34;5.88;;;2.90;;
43363;SDS011;40636;52.424;-1.948;2023-11-22T07:31:02;6.70;;;3.13;;
43363;SDS011;40636;52.424;-1.948;2023-11-22T07:33:32;4.93;;;3.65;;
43363;SDS011;40636;52.424;-1.948;2023-11-22T07:35:59;0.63;;;0.60;;
43363;SDS011;40636;52.424;-1.948;2023-11-22T07:38:26;5.68;;;3.90;;
43363;SDS011;40636;52.424;-1.948;2023-11-22T07:40:53;2.92;;;0.95;;
43363;SDS011;40636;52.424;-1.948;2023-11-22T07:43:20;5.10;;;3.22;;
43363;SDS011;40636;52.424;-1.948;2023-11-22T07:45:47;4.78;;;3.85;;
43363;SDS011;40636;52.424;-1.948;2023-11-22T07:48:15;4.60;;;3.70;;
43363;SDS011;40636;52.424;-1.948;2023-11-22T07:50:41;4.97;;;3.13;;
43363;SDS011;40636;52.424;-1.948;2023-11-22T07:53:13;6.50;;;2.90;;
43363;SDS011;40636;52.424;-1.948;2023-11-22T07:55:41;4.00;;;2.78;;
43363;SDS011;40636;52.424;-1.948;2023-11-22T07:58:08;5.82;;;2.85;;
43363;SDS011;40636;52.424;-1.948;2023-11-22T08:00:35;8.00;;;2.70;;
43363;SDS011;40636;52.424;-1.948;2023-11-22T08:03:03;1.15;;;0.75;;
43363;SDS011;40636;52.424;-1.948;2023-11-22T08:05:30;4.35;;;3.05;;
43363;SDS011;40636;52.424;-1.948;2023-11-22T08:08:02;4.68;;;3.47;;
43363;SDS011;40636;52.424;-1.948;2023-11-22T08:10:35;5.35;;;3.92;;
43363;SDS011;40636;52.424;-1.948;2023-11-22T08:13:02;4.07;;;2.78;;
43363;SDS011;40636;52.424;-1.948;2023-11-22T08:15:29;5.40;;;2.65;;
43363;SDS011;40636;52.424;-1.948;2023-11-22T08:17:58;3.88;;;2.47;;
43363;SDS011;40636;52.424;-1.948;2023-11-22T08:20:27;3.08;;;2.25;;
43363;SDS011;40636;52.424;-1.948;2023-11-22T08:22:53;6.35;;;2.72;;
43363;SDS011;40636;52.424;-1.948;2023-11-22T08:25:20;4.63;;;3.00;;
43363;SDS011;40636;52.424;-1.948;2023-11-22T08:27:47;3.92;;;2.90;;
43363;SDS011;40636;52.424;-1.948;2023-11-22T08:30:14;5.55;;;2.35;;
43363;SDS011;40636;52.424;-1.948;2023-11-22T08:32:42;1.00;;;0.85;;
43363;SDS011;40636;52.424;-1.948;2023-11-22T08:35:10;5.20;;;2.47;;
43363;SDS011;40636;52.424;-1.948;2023-11-22T08:37:39;4.03;;;2.40;;
43363;SDS011;40636;52.424;-1.948;2023-11-22T08:40:08;1.60;;;1.50;;
43363;SDS011;40636;52.424;-1.948;2023-11-22T08:42:41;3.97;;;2.60;;
43363;SDS011;40636;52.424;-1.948;2023-11-22T08:45:07;4.60;;;2.95;;
43363;SDS011;40636;52.424;-1.948;2023-11-22T08:47:35;3.60;;;2.40;;
43363;SDS011;40636;52.424;-1.948;2023-11-22T08:50:03;6.75;;;3.15;;
43363;SDS011;40636;52.424;-1.948;2023-11-22T08:52:30;6.30;;;2.58;;
43363;SDS011;40636;52.424;-1.948;2023-11-22T08:54:58;5.78;;;3.70;;
43363;SDS011;40636;52.424;-1.948;2023-11-22T08:57:27;4.90;;;2.72;;
43363;SDS011;40636;52.424;-1.948;2023-11-22T08:59:56;5.10;;;2.78;;
43363;SDS011;40636;52.424;-1.948;2023-11-22T09:02:26;4.95;;;2.60;;
43363;SDS011;40636;52.424;-1.948;2023-11-22T09:04:56;5.78;;;2.85;;
43363;SDS011;40636;52.424;-1.948;2023-11-22T09:07:26;3.00;;;2.47;;
43363;SDS011;40636;52.424;-1.948;2023-11-22T09:09:56;3.13;;;0.85;;
43363;SDS011;40636;52.424;-1.948;2023-11-22T09:12:26;6.82;;;3.13;;
43363;SDS011;40636;52.424;-1.948;2023-11-22T09:14:55;6.38;;;3.03;;
43363;SDS011;40636;52.424;-1.948;2023-11-22T09:17:25;7.05;;;2.67;;
43363;SDS011;40636;52.424;-1.948;2023-11-22T09:19:55;5.80;;;2.85;;
43363;SDS011;40636;52.424;-1.948;2023-11-22T09:22:27;7.72;;;3.22;;
43363;SDS011;40636;52.424;-1.948;2023-11-22T09:24:56;5.60;;;3.20;;
43363;SDS011;40636;52.424;-1.948;2023-11-22T09:27:24;6.53;;;3.30;;
43363;SDS011;40636;52.424;-1.948;2023-11-22T09:29:53;9.15;;;3.67;;
43363;SDS011;40636;52.424;-1.948;2023-11-22T09:32:22;5.32;;;3.30;;
43363;SDS011;40636;52.424;-1.948;2023-11-22T09:34:50;7.10;;;3.53;;
43363;SDS011;40636;52.424;-1.948;2023-11-22T09:37:25;9.20;;;3.80;;
43363;SDS011;40636;52.424;-1.948;2023-11-22T09:39:53;7.28;;;3.33;;
43363;SDS011;40636;52.424;-1.948;2023-11-22T09:42:21;4.20;;;3.15;;
43363;SDS011;40636;52.424;-1.948;2023-11-22T09:44:50;8.32;;;3.58;;
43363;SDS011;40636;52.424;-1.948;2023-11-22T09:47:19;4.07;;;2.70;;
43363;SDS011;40636;52.424;-1.948;2023-11-22T09:49:49;8.10;;;3.60;;
43363;SDS011;40636;52.424;-1.948;2023-11-22T09:52:19;6.63;;;2.95;;
43363;SDS011;40636;52.424;-1.948;2023-11-22T09:54:54;10.50;;;3.40;;
43363;SDS011;40636;52.424;-1.948;2023-11-22T09:57:23;5.95;;;3.28;;
43363;SDS011;40636;52.424;-1.948;2023-11-22T09:59:53;6.20;;;2.85;;
43363;SDS011;40636;52.424;-1.948;2023-11-22T10:02:23;5.85;;;3.92;;
43363;SDS011;40636;52.424;-1.948;2023-11-22T10:04:54;7.93;;;4.03;;
43363;SDS011;40636;52.424;-1.948;2023-11-22T10:07:23;5.55;;;3.80;;
43363;SDS011;40636;52.424;-1.948;2023-11-22T10:09:52;4.65;;;3.50;;
43363;SDS011;40636;52.424;-1.948;2023-11-22T10:12:21;7.00;;;3.38;;
43363;SDS011;40636;52.424;-1.948;2023-11-22T10:14:49;4.78;;;2.75;;
43363;SDS011;40636;52.424;-1.948;2023-11-22T10:17:17;6.50;;;3.00;;
43363;SDS011;40636;52.424;-1.948;2023-11-22T10:19:46;5.65;;;3.08;;
43363;SDS011;40636;52.424;-1.948;2023-11-22T10:22:14;5.65;;;2.70;;
43363;SDS011;40636;52.424;-1.948;2023-11-22T10:24:44;5.18;;;2.88;;
43363;SDS011;40636;52.424;-1.948;2023-11-22T10:27:13;5.32;;;3.25;;
43363;SDS011;40636;52.424;-1.948;2023-11-22T10:29:46;4.22;;;3.00;;
43363;SDS011;40636;52.424;-1.948;2023-11-22T10:32:15;7.65;;;3.65;;
43363;SDS011;40636;52.424;-1.948;2023-11-22T10:34:44;5.47;;;3.10;;
43363;SDS011;40636;52.424;-1.948;2023-11-22T10:37:12;5.25;;;3.08;;
43363;SDS011;40636;52.424;-1.948;2023-11-22T10:39:40;4.90;;;2.75;;
43363;SDS011;40636;52.424;-1.948;2023-11-22T10:42:09;7.70;;;3.38;;
43363;SDS011;40636;52.424;-1.948;2023-11-22T10:44:37;7.35;;;3.05;;
43363;SDS011;40636;52.424;-1.948;2023-11-22T10:47:07;3.95;;;2.92;;
43363;SDS011;40636;52.424;-1.948;2023-11-22T10:49:36;5.43;;;2.67;;
43363;SDS011;40636;52.424;-1.948;2023-11-22T10:52:05;7.38;;;2.45;;
43363;SDS011;40636;52.424;-1.948;2023-11-22T10:54:40;5.05;;;2.63;;
43363;SDS011;40636;52.424;-1.948;2023-11-22T10:57:19;5.57;;;2.65;;
43363;SDS011;40636;52.424;-1.948;2023-11-22T10:59:53;9.73;;;2.40;;
43363;SDS011;40636;52.424;-1.948;2023-11-22T11:02:22;6.13;;;2.47;;
43363;SDS011;40636;52.424;-1.948;2023-11-22T11:04:58;6.15;;;2.35;;
43363;SDS011;40636;52.424;-1.948;2023-11-22T11:07:31;4.45;;;2.05;;
43363;SDS011;40636;52.424;-1.948;2023-11-22T11:10:05;6.55;;;2.30;;
43363;SDS011;40636;52.424;-1.948;2023-11-22T11:12:42;6.75;;;2.75;;
43363;SDS011;40636;52.424;-1.948;2023-11-22T11:15:13;8.68;;;2.83;;
43363;SDS011;40636;52.424;-1.948;2023-11-22T11:17:44;3.83;;;2.60;;
43363;SDS011;40636;52.424;-1.948;2023-11-22T11:20:16;9.18;;;2.88;;
43363;SDS011;40636;52.424;-1.948;2023-11-22T11:22:47;5.85;;;2.22;;
43363;SDS011;40636;52.424;-1.948;2023-11-22T11:25:16;7.65;;;2.60;;
43363;SDS011;40636;52.424;-1.948;2023-11-22T11:27:55;7.13;;;2.85;;
43363;SDS011;40636;52.424;-1.948;2023-11-22T11:33:09;6.47;;;2.97;;
43363;SDS011;40636;52.424;-1.948;2023-11-22T11:35:47;6.22;;;3.53;;
43363;SDS011;40636;52.424;-1.948;2023-11-22T11:38:19;4.45;;;2.80;;
43363;SDS011;40636;52.424;-1.948;2023-11-22T11:40:49;6.82;;;3.13;;
43363;SDS011;40636;52.424;-1.948;2023-11-22T11:43:21;7.05;;;2.55;;
43363;SDS011;40636;52.424;-1.948;2023-11-22T11:46:10;4.53;;;3.20;;
43363;SDS011;40636;52.424;-1.948;2023-11-22T11:48:47;6.47;;;3.42;;
43363;SDS011;40636;52.424;-1.948;2023-11-22T11:51:28;3.90;;;2.75;;
43363;SDS011;40636;52.424;-1.948;2023-11-22T11:53:57;6.70;;;3.30;;
43363;SDS011;40636;52.424;-1.948;2023-11-22T11:56:26;6.72;;;2.83;;
43363;SDS011;40636;52.424;-1.948;2023-11-22T11:58:56;7.07;;;3.00;;
43363;SDS011;40636;52.424;-1.948;2023-11-22T12:01:28;8.98;;;3.20;;
43363;SDS011;40636;52.424;-1.948;2023-11-22T12:03:58;4.90;;;2.95;;
43363;SDS011;40636;52.424;-1.948;2023-11-22T12:06:29;6.78;;;2.97;;
43363;SDS011;40636;52.424;-1.948;2023-11-22T12:09:00;6.05;;;2.95;;
43363;SDS011;40636;52.424;-1.948;2023-11-22T12:11:30;6.13;;;2.97;;
43363;SDS011;40636;52.424;-1.948;2023-11-22T12:13:58;6.60;;;2.72;;
43363;SDS011;40636;52.424;-1.948;2023-11-22T12:16:26;5.72;;;2.53;;
43363;SDS011;40636;52.424;-1.948;2023-11-22T12:18:55;4.88;;;3.03;;
43363;SDS011;40636;52.424;-1.948;2023-11-22T12:21:24;5.32;;;2.38;;
43363;SDS011;40636;52.424;-1.948;2023-11-22T12:23:54;5.43;;;2.50;;
43363;SDS011;40636;52.424;-1.948;2023-11-22T12:26:22;11.75;;;3.33;;
43363;SDS011;40636;52.424;-1.948;2023-11-22T12:28:50;9.30;;;2.88;;
43363;SDS011;40636;52.424;-1.948;2023-11-22T12:31:31;8.52;;;3.08;;
43363;SDS011;40636;52.424;-1.948;2023-11-22T12:34:03;4.10;;;2.55;;
43363;SDS011;40636;52.424;-1.948;2023-11-22T12:36:34;5.78;;;2.50;;
43363;SDS011;40636;52.424;-1.948;2023-11-22T12:39:08;4.45;;;2.63;;
43363;SDS011;40636;52.424;-1.948;2023-11-22T12:41:43;4.65;;;2.40;;
43363;SDS011;40636;52.424;-1.948;2023-11-22T12:44:27;5.25;;;2.50;;
43363;SDS011;40636;52.424;-1.948;2023-11-22T12:46:59;6.20;;;2.33;;
43363;SDS011;40636;52.424;-1.948;2023-11-22T12:49:29;7.22;;;2.20;;
43363;SDS011;40636;52.424;-1.948;2023-11-22T12:51:59;4.85;;;2.08;;
43363;SDS011;40636;52.424;-1.948;2023-11-22T12:54:27;4.50;;;2.00;;
43363;SDS011;40636;52.424;-1.948;2023-11-22T12:56:56;6.97;;;2.13;;
43363;SDS011;40636;52.424;-1.948;2023-11-22T12:59:28;3.00;;;1.75;;
43363;SDS011;40636;52.424;-1.948;2023-11-22T13:01:58;4.50;;;2.33;;
43363;SDS011;40636;52.424;-1.948;2023-11-22T13:04:28;3.70;;;2.17;;
43363;SDS011;40636;52.424;-1.948;2023-11-22T13:06:58;5.15;;;2.47;;
43363;SDS011;40636;52.424;-1.948;2023-11-22T13:09:27;6.05;;;2.65;;
43363;SDS011;40636;52.424;-1.948;2023-11-22T13:11:59;6.20;;;2.35;;
43363;SDS011;40636;52.424;-1.948;2023-11-22T13:14:28;3.28;;;2.10;;
43363;SDS011;40636;52.424;-1.948;2023-11-22T13:17:05;3.13;;;2.10;;
43363;SDS011;40636;52.424;-1.948;2023-11-22T13:19:35;4.95;;;2.05;;
43363;SDS011;40636;52.424;-1.948;2023-11-22T13:22:05;6.95;;;3.10;;
43363;SDS011;40636;52.424;-1.948;2023-11-22T13:24:35;6.60;;;2.65;;
43363;SDS011;40636;52.424;-1.948;2023-11-22T13:27:03;7.80;;;2.42;;
43363;SDS011;40636;52.424;-1.948;2023-11-22T13:29:31;4.57;;;2.40;;
43363;SDS011;40636;52.424;-1.948;2023-11-22T13:31:59;6.72;;;2.95;;
43363;SDS011;40636;52.424;-1.948;2023-11-22T13:34:28;5.63;;;2.40;;
43363;SDS011;40636;52.424;-1.948;2023-11-22T13:36:57;6.40;;;3.20;;
43363;SDS011;40636;52.424;-1.948;2023-11-22T13:39:25;8.02;;;2.85;;
43363;SDS011;40636;52.424;-1.948;2023-11-22T13:41:54;7.80;;;2.78;;
43363;SDS011;40636;52.424;-1.948;2023-11-22T13:44:22;9.30;;;2.90;;
43363;SDS011;40636;52.424;-1.948;2023-11-22T13:46:50;4.00;;;2.22;;
43363;SDS011;40636;52.424;-1.948;2023-11-22T13:49:18;4.60;;;2.40;;
43363;SDS011;40636;52.424;-1.948;2023-11-22T13:51:49;3.15;;;2.08;;
43363;SDS011;40636;52.424;-1.948;2023-11-22T13:54:17;5.38;;;2.38;;
43363;SDS011;40636;52.424;-1.948;2023-11-22T13:56:46;4.32;;;2.03;;
43363;SDS011;40636;52.424;-1.948;2023-11-22T13:59:14;5.88;;;2.60;;
43363;SDS011;40636;52.424;-1.948;2023-11-22T14:01:43;3.38;;;1.67;;
43363;SDS011;40636;52.424;-1.948;2023-11-22T14:04:14;4.60;;;1.98;;
43363;SDS011;40636;52.424;-1.948;2023-11-22T14:06:42;3.15;;;1.63;;
43363;SDS011;40636;52.424;-1.948;2023-11-22T14:09:10;3.10;;;1.60;;
43363;SDS011;40636;52.424;-1.948;2023-11-22T14:11:40;3.90;;;1.60;;
43363;SDS011;40636;52.424;-1.948;2023-11-22T14:14:08;3.95;;;1.83;;
43363;SDS011;40636;52.424;-1.948;2023-11-22T14:16:39;4.15;;;1.85;;
43363;SDS011;40636;52.424;-1.948;2023-11-22T14:19:11;2.35;;;1.75;;
43363;SDS011;40636;52.424;-1.948;2023-11-22T14:21:40;4.05;;;2.17;;
43363;SDS011;40636;52.424;-1.948;2023-11-22T14:24:08;3.00;;;1.77;;
43363;SDS011;40636;52.424;-1.948;2023-11-22T14:26:38;2.08;;;1.63;;
43363;SDS011;40636;52.424;-1.948;2023-11-22T14:29:06;4.40;;;1.90;;
43363;SDS011;40636;52.424;-1.948;2023-11-22T14:31:34;4.15;;;1.77;;
43363;SDS011;40636;52.424;-1.948;2023-11-22T14:34:04;4.88;;;2.10;;
43363;SDS011;40636;52.424;-1.948;2023-11-22T14:36:32;4.32;;;1.38;;
43363;SDS011;40636;52.424;-1.948;2023-11-22T14:39:00;2.95;;;1.35;;
43363;SDS011;40636;52.424;-1.948;2023-11-22T14:41:28;2.88;;;1.65;;
43363;SDS011;40636;52.424;-1.948;2023-11-22T14:43:57;2.35;;;1.50;;